createdAt,value
2017-06-12T00:01:36.213Z,96.00
2017-06-12T00:04:04.524Z,95.80
2017-06-12T00:06:32.862Z,95.70
2017-06-12T00:09:01.198Z,95.70
2017-06-12T00:11:29.506Z,95.70
2017-06-12T00:13:58.606Z,95.70
2017-06-12T00:16:27.068Z,95.70
2017-06-12T00:18:55.391Z,95.60
2017-06-12T00:21:23.696Z,95.50
2017-06-12T00:23:52.135Z,95.40
2017-06-12T00:26:21.187Z,95.70
2017-06-12T00:28:49.594Z,95.60
2017-06-12T00:31:18.682Z,95.20
2017-06-12T00:33:47.046Z,95.20
2017-06-12T00:36:15.443Z,94.70
2017-06-12T00:38:43.742Z,94.90
2017-06-12T00:41:12.078Z,94.80
2017-06-12T00:43:40.485Z,94.80
2017-06-12T00:46:09.587Z,94.40
2017-06-12T00:48:37.894Z,94.40
2017-06-12T00:51:06.334Z,94.40
2017-06-12T00:53:35.487Z,95.10
2017-06-12T00:56:03.915Z,95.10
2017-06-12T00:58:32.259Z,94.90
2017-06-12T01:01:00.568Z,94.90
2017-06-12T01:03:29.142Z,95.60
2017-06-12T01:05:57.456Z,95.60
2017-06-12T01:08:25.760Z,95.70
2017-06-12T01:10:54.181Z,95.70
2017-06-12T01:13:22.460Z,95.80
2017-06-12T01:15:50.780Z,95.70
2017-06-12T01:18:19.092Z,95.50
2017-06-12T01:20:47.432Z,95.50
2017-06-12T01:23:15.763Z,95.70
2017-06-12T01:25:44.091Z,95.80
2017-06-12T01:28:12.393Z,95.70
2017-06-12T01:30:40.847Z,95.90
2017-06-12T01:33:09.187Z,95.90
2017-06-12T01:35:37.599Z,95.70
2017-06-12T01:38:05.903Z,95.70
2017-06-12T01:40:34.253Z,95.30
2017-06-12T01:43:02.556Z,95.20
2017-06-12T01:45:30.907Z,95.10
2017-06-12T01:47:59.208Z,95.00
2017-06-12T01:50:28.291Z,95.40
2017-06-12T01:52:56.637Z,95.20
2017-06-12T01:55:24.927Z,95.50
2017-06-12T01:57:53.263Z,95.80
2017-06-12T02:00:21.575Z,95.80
2017-06-12T02:02:49.899Z,95.70
2017-06-12T02:05:18.998Z,95.80
2017-06-12T02:07:47.300Z,95.70
2017-06-12T02:10:15.631Z,95.70
2017-06-12T02:12:43.920Z,95.40
2017-06-12T02:15:12.266Z,95.30
2017-06-12T02:17:40.566Z,95.00
2017-06-12T02:20:09.650Z,94.20
2017-06-12T02:22:37.982Z,94.30
2017-06-12T02:25:06.498Z,94.30
2017-06-12T02:27:34.825Z,93.90
2017-06-12T02:30:03.882Z,93.10
2017-06-12T02:32:32.165Z,93.10
2017-06-12T02:35:00.483Z,93.20
2017-06-12T02:37:28.783Z,93.00
2017-06-12T02:39:57.106Z,92.90
2017-06-12T02:42:25.409Z,92.70
2017-06-12T02:44:53.718Z,92.70
2017-06-12T02:47:22.000Z,92.90
2017-06-12T02:49:50.350Z,92.80
2017-06-12T02:52:18.654Z,92.90
2017-06-12T02:54:46.950Z,92.90
2017-06-12T02:57:15.269Z,92.80
2017-06-12T02:59:43.840Z,92.40
2017-06-12T03:02:12.932Z,91.80
2017-06-12T03:04:41.240Z,91.70
2017-06-12T03:07:09.585Z,91.10
2017-06-12T03:09:37.923Z,89.50
2017-06-12T03:12:06.238Z,87.60
2017-06-12T03:14:35.547Z,87.50
2017-06-12T03:17:04.718Z,86.60
2017-06-12T03:19:33.101Z,86.50
2017-06-12T03:22:02.198Z,86.90
2017-06-12T03:24:30.582Z,86.80
2017-06-12T03:26:58.967Z,87.10
2017-06-12T03:29:28.150Z,88.30
2017-06-12T03:31:57.246Z,88.40
2017-06-12T03:34:26.344Z,88.90
2017-06-12T03:36:54.724Z,88.80
2017-06-12T03:39:23.779Z,89.30
2017-06-12T03:41:52.194Z,89.30
2017-06-12T03:44:20.570Z,89.50
2017-06-12T03:46:49.668Z,88.30
2017-06-12T03:49:18.049Z,88.30
2017-06-12T03:51:47.135Z,88.60
2017-06-12T03:54:15.458Z,88.50
2017-06-12T03:56:43.750Z,88.90
2017-06-12T03:59:12.074Z,88.90
2017-06-12T04:01:40.373Z,88.40
2017-06-12T04:04:08.718Z,87.20
2017-06-12T04:06:37.814Z,86.10
2017-06-12T04:09:06.114Z,86.00
2017-06-12T04:11:34.452Z,85.20
2017-06-12T04:14:02.901Z,85.10
2017-06-12T04:16:31.332Z,84.90
2017-06-12T04:18:59.703Z,84.70
2017-06-12T04:21:28.083Z,84.10
2017-06-12T04:23:57.179Z,84.30
2017-06-12T04:26:26.247Z,84.70
2017-06-12T04:28:54.659Z,84.60
2017-06-12T04:31:23.031Z,85.00
2017-06-12T04:33:52.328Z,84.90
2017-06-12T04:36:21.386Z,85.20
2017-06-12T04:38:49.700Z,85.20
2017-06-12T04:41:18.789Z,86.80
2017-06-12T04:43:47.855Z,87.00
2017-06-12T04:46:16.206Z,86.90
2017-06-12T04:48:44.507Z,85.90
2017-06-12T04:51:12.794Z,85.00
2017-06-12T04:53:41.114Z,85.50
2017-06-12T04:56:09.469Z,85.00
2017-06-12T04:58:38.066Z,83.90
2017-06-12T05:01:07.110Z,84.70
2017-06-12T05:03:35.525Z,84.20
2017-06-12T05:06:04.532Z,84.10
2017-06-12T05:08:33.611Z,83.70
2017-06-12T05:11:01.963Z,83.60
2017-06-12T05:13:30.365Z,83.60
2017-06-12T05:15:59.466Z,82.60
2017-06-12T05:18:28.530Z,82.30
2017-06-12T05:20:56.830Z,82.10
2017-06-12T05:23:25.922Z,81.70
2017-06-12T05:25:55.031Z,80.20
2017-06-12T05:28:23.503Z,80.20
2017-06-12T05:30:51.994Z,80.10
2017-06-12T05:33:20.303Z,78.60
2017-06-12T05:35:48.650Z,78.60
2017-06-12T05:38:17.067Z,78.80
2017-06-12T05:40:45.398Z,78.80
2017-06-12T05:43:14.500Z,78.50
2017-06-12T05:45:43.592Z,77.80
2017-06-12T05:48:13.399Z,77.10
2017-06-12T05:50:42.495Z,77.50
2017-06-12T05:53:10.979Z,77.40
2017-06-12T05:55:40.047Z,77.70
2017-06-12T05:58:08.378Z,77.50
2017-06-12T06:00:36.690Z,77.20
2017-06-12T06:03:05.105Z,77.50
2017-06-12T06:05:33.420Z,77.80
2017-06-12T06:08:01.715Z,77.60
2017-06-12T06:10:30.031Z,76.70
2017-06-12T06:12:59.123Z,76.20
2017-06-12T06:15:28.310Z,75.40
2017-06-12T06:17:57.382Z,74.80
2017-06-12T06:20:25.794Z,74.80
2017-06-12T06:22:54.983Z,76.10
2017-06-12T06:25:23.271Z,76.10
2017-06-12T06:27:51.647Z,76.90
2017-06-12T06:30:20.032Z,77.60
2017-06-12T06:32:48.367Z,76.90
2017-06-12T06:35:16.663Z,76.90
2017-06-12T06:37:45.770Z,76.60
2017-06-12T06:40:14.959Z,76.80
2017-06-12T06:42:44.055Z,76.70
2017-06-12T06:45:12.385Z,76.30
2017-06-12T06:47:40.687Z,76.00
2017-06-12T06:50:09.631Z,75.90
2017-06-12T06:52:37.946Z,75.70
2017-06-12T06:55:06.355Z,76.40
2017-06-12T06:57:34.834Z,76.10
2017-06-12T07:00:03.115Z,76.60
2017-06-12T07:02:32.187Z,75.90
2017-06-12T07:05:00.586Z,75.90
2017-06-12T07:07:30.709Z,75.60
2017-06-12T07:09:59.771Z,76.30
2017-06-12T07:12:28.287Z,75.40
2017-06-12T07:14:57.471Z,75.00
2017-06-12T07:17:26.600Z,75.60
2017-06-12T07:19:54.914Z,75.60
2017-06-12T07:22:23.443Z,75.10
2017-06-12T07:24:51.809Z,75.30
2017-06-12T07:27:20.868Z,73.00
2017-06-12T07:29:49.171Z,73.00
2017-06-12T07:32:17.550Z,73.40
2017-06-12T07:34:46.646Z,73.20
2017-06-12T07:37:15.738Z,73.40
2017-06-12T07:39:45.038Z,73.40
2017-06-12T07:42:14.195Z,72.70
2017-06-12T07:44:43.339Z,71.90
2017-06-12T07:47:12.441Z,71.50
2017-06-12T07:49:41.530Z,71.60
2017-06-12T07:52:09.902Z,71.50
2017-06-12T07:54:39.403Z,70.80
2017-06-12T07:57:08.469Z,71.30
2017-06-12T07:59:36.783Z,71.30
2017-06-12T08:02:05.978Z,71.40
2017-06-12T08:04:35.042Z,71.60
2017-06-12T08:07:03.355Z,71.50
2017-06-12T08:09:32.448Z,70.40
2017-06-12T08:12:01.546Z,70.40
2017-06-12T08:14:30.615Z,69.40
2017-06-12T08:16:59.336Z,69.40
2017-06-12T08:19:27.706Z,67.50
2017-06-12T08:21:56.134Z,67.80
2017-06-12T08:24:24.877Z,67.50
2017-06-12T08:26:53.249Z,65.80
2017-06-12T08:29:21.570Z,65.40
2017-06-12T08:31:49.908Z,65.20
2017-06-12T08:34:18.234Z,65.30
2017-06-12T08:36:46.531Z,65.40
2017-06-12T08:39:14.926Z,65.60
2017-06-12T08:41:43.298Z,64.80
2017-06-12T08:44:11.627Z,64.60
2017-06-12T08:46:40.177Z,65.20
2017-06-12T08:49:08.468Z,66.60
2017-06-12T08:51:36.802Z,67.70
2017-06-12T08:54:06.021Z,67.10
2017-06-12T08:56:34.298Z,66.90
2017-06-12T08:59:02.658Z,67.10
2017-06-12T09:01:30.942Z,68.50
2017-06-12T09:04:00.030Z,67.50
2017-06-12T09:06:29.095Z,67.60
2017-06-12T09:08:57.439Z,67.60
2017-06-12T09:11:25.796Z,65.10
2017-06-12T09:13:54.878Z,64.50
2017-06-12T09:16:24.082Z,64.70
2017-06-12T09:18:54.044Z,64.50
2017-06-12T09:21:22.475Z,64.50
2017-06-12T09:23:51.571Z,65.70
2017-06-12T09:26:20.773Z,64.70
2017-06-12T09:28:49.873Z,65.70
2017-06-12T09:31:18.176Z,65.70
2017-06-12T09:33:46.498Z,66.10
2017-06-12T09:36:15.615Z,65.70
2017-06-12T09:38:44.142Z,64.90
2017-06-12T09:41:12.630Z,64.80
2017-06-12T09:43:40.945Z,65.90
2017-06-12T09:46:10.139Z,64.30
2017-06-12T09:48:39.349Z,65.10
2017-06-12T09:51:07.725Z,64.90
2017-06-12T09:53:36.791Z,63.40
2017-06-12T09:56:05.922Z,62.90
2017-06-12T09:58:35.114Z,63.10
2017-06-12T10:01:04.306Z,63.00
2017-06-12T10:03:33.401Z,62.40
2017-06-12T10:06:01.774Z,62.20
2017-06-12T10:08:30.866Z,63.00
2017-06-12T10:10:59.963Z,63.50
2017-06-12T10:13:29.070Z,64.00
2017-06-12T10:15:57.437Z,63.90
2017-06-12T10:18:26.510Z,59.60
2017-06-12T10:20:54.847Z,59.50
2017-06-12T10:23:23.138Z,59.40
2017-06-12T10:25:51.498Z,59.90
2017-06-12T10:28:19.804Z,60.40
2017-06-12T10:30:48.226Z,59.70
2017-06-12T10:33:16.602Z,59.60
2017-06-12T10:35:44.902Z,60.00
2017-06-12T10:38:13.303Z,59.30
2017-06-12T10:40:41.598Z,57.10
2017-06-12T10:43:09.907Z,56.30
2017-06-12T10:45:38.239Z,56.20
2017-06-12T10:48:06.547Z,57.10
2017-06-12T10:50:35.647Z,56.40
2017-06-12T10:53:04.739Z,56.10
2017-06-12T10:55:33.072Z,56.00
2017-06-12T10:58:01.608Z,56.20
2017-06-12T11:00:29.923Z,57.50
2017-06-12T11:02:58.310Z,57.90
2017-06-12T11:05:26.850Z,57.50
2017-06-12T11:07:55.949Z,57.50
2017-06-12T11:10:24.294Z,57.50
2017-06-12T11:12:52.690Z,57.90
2017-06-12T11:15:21.079Z,57.60
2017-06-12T11:17:50.209Z,57.10
2017-06-12T11:20:19.073Z,57.10
2017-06-12T11:22:47.364Z,56.80
2017-06-12T11:25:15.771Z,56.40
2017-06-12T11:27:49.923Z,56.70
2017-06-12T11:30:18.996Z,56.80
2017-06-12T11:32:48.107Z,56.50
2017-06-12T11:35:16.502Z,56.40
2017-06-12T11:37:44.873Z,57.30
2017-06-12T11:40:13.974Z,57.70
2017-06-12T11:42:42.344Z,57.60
2017-06-12T11:45:11.443Z,57.10
2017-06-12T11:47:39.820Z,57.00
2017-06-12T11:50:08.301Z,57.60
2017-06-12T11:52:37.373Z,55.90
2017-06-12T11:55:06.622Z,55.80
2017-06-12T11:57:34.918Z,55.80
2017-06-12T12:00:03.228Z,55.80
2017-06-12T12:02:31.614Z,55.20
2017-06-12T12:05:00.696Z,55.20
2017-06-12T12:07:29.806Z,54.60
2017-06-12T12:09:58.870Z,54.70
2017-06-12T12:12:27.194Z,54.60
2017-06-12T12:14:55.534Z,54.70
2017-06-12T12:17:23.927Z,55.00
2017-06-12T12:19:53.379Z,54.40
2017-06-12T12:22:21.710Z,54.40
2017-06-12T12:24:50.806Z,55.50
2017-06-12T12:27:19.117Z,54.90
2017-06-12T12:29:47.427Z,55.50
2017-06-12T12:32:15.703Z,55.30
2017-06-12T12:34:44.111Z,55.70
2017-06-12T12:37:13.209Z,54.90
2017-06-12T12:39:42.266Z,55.20
2017-06-12T12:42:10.594Z,55.40
2017-06-12T12:44:38.919Z,54.40
2017-06-12T12:47:07.258Z,54.90
2017-06-12T12:49:35.561Z,55.20
2017-06-12T12:52:03.891Z,54.60
2017-06-12T12:54:32.977Z,55.80
2017-06-12T12:57:02.087Z,55.40
2017-06-12T12:59:31.174Z,55.10
2017-06-12T13:02:00.234Z,55.20
2017-06-12T13:04:28.746Z,55.20
2017-06-12T13:06:57.951Z,54.90
2017-06-12T13:09:27.032Z,55.20
2017-06-12T13:11:56.130Z,55.30
2017-06-12T13:14:25.196Z,55.40
2017-06-12T13:16:53.512Z,55.30
2017-06-12T13:19:22.566Z,54.70
2017-06-12T13:21:50.899Z,54.50
2017-06-12T13:40:26.455Z,53.60
2017-06-12T13:42:54.786Z,55.20
2017-06-12T13:45:23.175Z,55.60
2017-06-12T13:47:51.565Z,56.00
2017-06-12T13:50:20.646Z,57.00
2017-06-12T13:52:49.856Z,57.80
2017-06-12T13:55:18.945Z,57.40
2017-06-12T13:57:48.042Z,57.70
2017-06-12T14:00:16.355Z,57.70
2017-06-12T14:02:45.318Z,57.80
2017-06-12T14:05:13.689Z,57.90
2017-06-12T14:07:42.770Z,56.90
2017-06-12T14:10:11.151Z,56.80
2017-06-12T14:12:40.273Z,56.30
2017-06-12T14:15:08.628Z,56.20
2017-06-12T14:17:37.006Z,57.50
2017-06-12T14:20:06.379Z,58.50
2017-06-12T14:22:34.847Z,58.70
2017-06-12T14:25:03.174Z,59.00
2017-06-12T14:27:31.543Z,59.30
2017-06-12T14:30:00.602Z,60.10
2017-06-12T14:32:28.934Z,60.00
2017-06-12T14:34:57.302Z,60.40
2017-06-12T14:37:26.486Z,59.00
2017-06-12T14:39:55.559Z,58.10
2017-06-12T14:42:23.998Z,58.10
2017-06-12T14:44:52.299Z,59.60
2017-06-12T14:47:20.831Z,60.10
2017-06-12T14:49:50.011Z,60.80
2017-06-12T14:52:19.112Z,59.60
2017-06-12T14:54:47.523Z,59.50
2017-06-12T14:57:15.871Z,59.70
2017-06-12T14:59:44.238Z,61.30
2017-06-12T15:02:12.620Z,62.10
2017-06-12T15:04:41.855Z,62.70
2017-06-12T15:07:10.146Z,62.70
2017-06-12T15:09:38.473Z,63.40
2017-06-12T15:12:07.563Z,64.80
2017-06-12T15:14:36.632Z,64.00
2017-06-12T15:17:05.051Z,63.90
2017-06-12T15:19:33.360Z,62.20
2017-06-12T15:22:01.879Z,61.20
2017-06-12T15:24:30.177Z,60.00
2017-06-12T15:26:59.275Z,59.50
2017-06-12T15:29:28.477Z,59.40
2017-06-12T15:31:56.847Z,59.30
2017-06-12T15:34:25.198Z,59.30
2017-06-12T15:36:53.708Z,59.80
2017-06-12T15:39:22.914Z,61.10
2017-06-12T15:41:51.279Z,61.10
2017-06-12T15:44:20.356Z,60.80
2017-06-12T15:46:48.750Z,60.80
2017-06-12T15:49:17.870Z,60.40
2017-06-12T15:51:46.239Z,60.20
2017-06-12T15:54:15.295Z,59.60
2017-06-12T15:56:43.595Z,59.40
2017-06-12T15:59:11.919Z,58.90
2017-06-12T16:01:40.248Z,58.80
2017-06-12T16:04:08.591Z,58.60
2017-06-12T16:06:36.895Z,58.00
2017-06-12T16:09:06.012Z,57.80
2017-06-12T16:11:34.322Z,57.80
2017-06-12T16:14:02.675Z,58.30
2017-06-12T16:16:31.008Z,57.60
2017-06-12T16:18:59.325Z,58.40
2017-06-12T16:21:27.796Z,57.30
2017-06-12T16:23:56.884Z,54.10
2017-06-12T16:26:25.364Z,53.90
2017-06-12T16:28:54.462Z,51.00
2017-06-12T16:31:23.517Z,50.80
2017-06-12T16:33:51.941Z,50.70
2017-06-12T16:36:20.358Z,50.70
2017-06-12T16:38:48.795Z,50.30
2017-06-12T16:41:17.116Z,51.00
2017-06-12T16:43:45.459Z,52.00
2017-06-12T16:46:13.818Z,53.30
2017-06-12T16:48:42.206Z,54.50
2017-06-12T16:51:11.273Z,56.60
2017-06-12T16:53:39.583Z,56.60
2017-06-12T16:56:07.942Z,57.80
2017-06-12T16:58:36.271Z,58.20
2017-06-12T17:01:04.613Z,58.90
2017-06-12T17:03:33.672Z,60.50
2017-06-12T17:06:02.064Z,60.50
2017-06-12T17:08:31.379Z,62.00
2017-06-12T17:10:59.750Z,61.90
2017-06-12T17:13:28.114Z,62.40
2017-06-12T17:15:57.222Z,63.80
2017-06-12T17:18:26.323Z,63.90
2017-06-12T17:20:54.654Z,63.90
2017-06-12T17:23:22.966Z,65.10
2017-06-12T17:25:51.354Z,66.20
2017-06-12T17:28:19.727Z,67.30
2017-06-12T17:30:48.108Z,66.40
2017-06-12T17:33:17.175Z,64.20
2017-06-12T17:35:45.512Z,64.10
2017-06-12T17:38:13.795Z,63.70
2017-06-12T17:40:42.766Z,63.60
2017-06-12T17:43:11.123Z,64.30
2017-06-12T17:45:39.447Z,65.30
2017-06-12T17:48:07.792Z,66.10
2017-06-12T17:50:36.103Z,66.50
2017-06-12T17:53:04.466Z,66.50
2017-06-12T17:55:32.779Z,67.00
2017-06-12T17:58:01.071Z,67.30
2017-06-12T18:00:29.470Z,67.80
2017-06-12T18:02:57.812Z,66.90
2017-06-12T18:05:26.419Z,67.70
2017-06-12T18:07:54.748Z,67.80
2017-06-12T18:10:23.064Z,67.70
2017-06-12T18:12:51.399Z,67.90
2017-06-12T18:15:19.743Z,68.10
2017-06-12T18:17:48.831Z,68.00
2017-06-12T18:20:17.142Z,68.00
2017-06-12T18:22:45.640Z,68.10
2017-06-12T18:25:13.968Z,68.40
2017-06-12T18:27:43.028Z,68.60
2017-06-12T18:30:11.627Z,68.50
2017-06-12T18:32:40.004Z,68.90
2017-06-12T18:35:09.453Z,69.30
2017-06-12T18:37:37.764Z,69.20
2017-06-12T18:40:06.072Z,69.60
2017-06-12T18:42:35.264Z,70.00
2017-06-12T18:45:04.331Z,70.20
2017-06-12T18:47:33.455Z,70.50
2017-06-12T18:50:01.831Z,70.40
2017-06-12T18:52:30.194Z,70.70
2017-06-12T18:54:58.603Z,70.80
2017-06-12T18:57:27.190Z,70.70
2017-06-12T18:59:55.557Z,71.00
2017-06-12T19:02:24.658Z,71.50
2017-06-12T19:04:53.830Z,71.10
2017-06-12T19:07:22.958Z,71.50
2017-06-12T19:09:51.299Z,70.90
2017-06-12T19:12:19.627Z,71.20
2017-06-12T19:14:48.167Z,71.30
2017-06-12T19:17:16.498Z,71.80
2017-06-12T19:19:44.827Z,71.90
2017-06-12T19:22:13.174Z,71.90
2017-06-12T19:24:41.463Z,71.70
2017-06-12T19:27:10.591Z,73.30
2017-06-12T19:29:38.894Z,72.40
2017-06-12T19:32:07.990Z,72.40
2017-06-12T19:34:36.303Z,72.30
2017-06-12T19:37:05.376Z,72.80
2017-06-12T19:39:33.910Z,72.10
2017-06-12T19:42:02.284Z,72.10
2017-06-12T19:44:31.406Z,71.70
2017-06-12T19:46:59.754Z,71.50
2017-06-12T19:49:28.821Z,71.40
2017-06-12T19:51:57.218Z,71.30
2017-06-12T19:54:26.299Z,72.00
2017-06-12T19:56:54.629Z,71.10
2017-06-12T19:59:22.945Z,71.40
2017-06-12T20:01:51.282Z,71.30
2017-06-12T20:04:19.587Z,71.70
2017-06-12T20:06:47.904Z,71.80
2017-06-12T20:09:16.226Z,72.30
2017-06-12T20:11:44.531Z,72.10
2017-06-12T20:14:13.650Z,72.20
2017-06-12T20:16:43.517Z,72.30
2017-06-12T20:19:11.943Z,72.30
2017-06-12T20:21:40.296Z,72.60
2017-06-12T20:24:08.650Z,72.70
2017-06-12T20:26:36.944Z,72.80
2017-06-12T20:29:05.460Z,72.90
2017-06-12T20:31:34.553Z,73.00
2017-06-12T20:34:02.891Z,72.80
2017-06-12T20:36:31.220Z,73.10
2017-06-12T20:39:00.095Z,74.30
2017-06-12T20:41:29.596Z,73.90
2017-06-12T20:43:58.023Z,73.80
2017-06-12T20:46:27.183Z,74.00
2017-06-12T20:48:55.534Z,73.80
2017-06-12T20:51:23.863Z,73.90
2017-06-12T20:53:52.246Z,73.40
2017-06-12T20:56:20.546Z,73.50
2017-06-12T20:58:48.832Z,73.60
2017-06-12T21:01:17.162Z,73.60
2017-06-12T21:03:45.462Z,73.40
2017-06-12T21:06:13.893Z,72.90
2017-06-12T21:08:42.173Z,72.70
2017-06-12T21:11:10.648Z,72.90
2017-06-12T21:13:38.955Z,72.90
2017-06-12T21:16:07.253Z,72.80
2017-06-12T21:18:35.574Z,72.90
2017-06-12T21:21:04.675Z,72.90
2017-06-12T21:23:32.993Z,72.70
2017-06-12T21:26:01.289Z,72.70
2017-06-12T21:28:29.863Z,72.70
2017-06-12T21:30:58.154Z,72.60
2017-06-12T21:33:26.631Z,72.60
2017-06-12T21:35:55.148Z,72.80
2017-06-12T21:38:24.226Z,73.40
2017-06-12T21:40:53.329Z,73.80
2017-06-12T21:43:21.648Z,73.60
2017-06-12T21:45:49.983Z,73.80
2017-06-12T21:48:19.050Z,74.10
2017-06-12T21:50:47.359Z,73.90
2017-06-12T21:53:15.725Z,74.30
2017-06-12T21:55:44.113Z,74.60
2017-06-12T21:58:12.696Z,74.90
2017-06-12T22:00:41.750Z,75.20
2017-06-12T22:03:10.026Z,75.10
2017-06-12T22:05:38.349Z,75.20
2017-06-12T22:08:06.817Z,75.00
2017-06-12T22:10:35.176Z,75.00
2017-06-12T22:13:03.566Z,75.20
2017-06-12T22:15:31.884Z,76.10
2017-06-12T22:18:00.323Z,75.50
2017-06-12T22:20:29.398Z,75.80
2017-06-12T22:22:57.794Z,75.80
2017-06-12T22:25:26.105Z,75.70
2017-06-12T22:27:54.450Z,75.90
2017-06-12T22:30:22.792Z,76.00
2017-06-12T22:32:51.212Z,76.20
2017-06-12T22:35:20.299Z,76.60
2017-06-12T22:37:49.375Z,76.90
2017-06-12T22:40:17.710Z,76.70
2017-06-12T22:42:46.055Z,76.90
2017-06-12T22:45:14.432Z,77.00
2017-06-12T22:47:42.807Z,77.10
2017-06-12T22:50:11.910Z,77.10
2017-06-12T22:52:41.195Z,77.10
2017-06-12T22:55:10.301Z,77.10
2017-06-12T22:57:38.622Z,77.00
2017-06-12T23:00:06.954Z,77.20
2017-06-12T23:02:35.298Z,77.50
2017-06-12T23:05:05.199Z,77.80
2017-06-12T23:07:33.518Z,77.70
2017-06-12T23:10:02.580Z,78.10
2017-06-12T23:12:31.706Z,79.00
2017-06-12T23:15:00.772Z,78.40
2017-06-12T23:17:29.186Z,78.40
2017-06-12T23:19:57.528Z,78.50
2017-06-12T23:22:26.622Z,78.80
2017-06-12T23:24:54.942Z,78.70
2017-06-12T23:27:30.790Z,78.80
2017-06-12T23:29:59.978Z,78.90
2017-06-12T23:32:28.359Z,78.90
2017-06-12T23:34:56.746Z,78.90
2017-06-12T23:37:25.224Z,79.10
2017-06-12T23:39:53.703Z,78.90
2017-06-12T23:42:21.995Z,79.20
2017-06-12T23:44:50.347Z,79.20
2017-06-12T23:47:19.545Z,79.30
2017-06-12T23:49:47.923Z,79.10
2017-06-12T23:52:17.019Z,79.50
2017-06-12T23:54:46.211Z,79.90
2017-06-12T23:57:15.318Z,79.90
2017-06-12T23:59:43.680Z,79.90
